createdAt,value
2018-04-15T00:00:37.430Z,1006.37
2018-04-15T00:01:37.359Z,1006.35
2018-04-15T00:02:37.433Z,1006.37
2018-04-15T00:03:37.432Z,1006.36
2018-04-15T00:04:37.436Z,1006.35
2018-04-15T00:05:37.431Z,1006.33
2018-04-15T00:06:37.440Z,1006.37
2018-04-15T00:07:37.357Z,1006.34
2018-04-15T00:08:37.456Z,1006.31
2018-04-15T00:09:37.411Z,1006.29
2018-04-15T00:10:37.355Z,1006.32
2018-04-15T00:11:37.434Z,1006.32
2018-04-15T00:12:37.440Z,1006.27
2018-04-15T00:13:37.356Z,1006.26
2018-04-15T00:14:37.415Z,1006.29
2018-04-15T00:15:37.412Z,1006.24
2018-04-15T00:16:37.365Z,1006.25
2018-04-15T00:17:37.417Z,1006.27
2018-04-15T00:18:37.499Z,1006.23
2018-04-15T00:19:37.437Z,1006.22
2018-04-15T00:20:37.440Z,1006.21
2018-04-15T00:21:37.444Z,1006.19
2018-04-15T00:22:37.368Z,1006.16
2018-04-15T00:23:37.456Z,1006.17
2018-04-15T00:24:37.436Z,1006.13
2018-04-15T00:25:37.364Z,1006.13
2018-04-15T00:26:37.368Z,1006.06
2018-04-15T00:27:37.370Z,1006.08
2018-04-15T00:28:37.444Z,1006.07
2018-04-15T00:29:37.370Z,1006.06
2018-04-15T00:30:37.371Z,1006.10
2018-04-15T00:31:37.442Z,1006.10
2018-04-15T00:32:37.445Z,1006.08
2018-04-15T00:33:37.370Z,1006.10
2018-04-15T00:34:37.452Z,1006.09
2018-04-15T00:35:37.384Z,1006.03
2018-04-15T00:36:37.381Z,1006.00
2018-04-15T00:37:37.460Z,1006.01
2018-04-15T00:38:37.460Z,1005.99
2018-04-15T00:39:37.458Z,1005.99
2018-04-15T00:40:37.458Z,1005.99
2018-04-15T00:41:37.460Z,1005.99
2018-04-15T00:42:37.384Z,1005.95
2018-04-15T00:43:37.466Z,1005.93
2018-04-15T00:44:37.456Z,1005.94
2018-04-15T00:45:37.430Z,1005.90
2018-04-15T00:46:37.381Z,1005.91
2018-04-15T00:47:37.521Z,1005.90
2018-04-15T00:48:37.455Z,1005.91
2018-04-15T00:49:37.455Z,1005.91
2018-04-15T00:50:37.491Z,1005.89
2018-04-15T00:51:37.458Z,1005.86
2018-04-15T00:52:37.464Z,1005.87
2018-04-15T00:53:37.498Z,1005.85
2018-04-15T00:54:37.434Z,1005.86
2018-04-15T00:55:37.493Z,1005.85
2018-04-15T00:56:37.381Z,1005.87
2018-04-15T00:57:37.467Z,1005.84
2018-04-15T00:58:37.483Z,1005.84
2018-04-15T00:59:37.493Z,1005.82
2018-04-15T01:00:37.431Z,1005.83
2018-04-15T01:01:37.473Z,1005.81
2018-04-15T01:02:37.392Z,1005.82
2018-04-15T01:03:37.391Z,1005.81
2018-04-15T01:04:37.400Z,1005.80
2018-04-15T01:05:37.398Z,1005.84
2018-04-15T01:06:37.401Z,1005.77
2018-04-15T01:07:37.402Z,1005.77
2018-04-15T01:08:37.515Z,1005.79
2018-04-15T01:09:37.445Z,1005.73
2018-04-15T01:10:37.405Z,1005.76
2018-04-15T01:11:37.477Z,1005.80
2018-04-15T01:12:37.499Z,1005.75
2018-04-15T01:13:37.408Z,1005.76
2018-04-15T01:14:37.425Z,1005.77
2018-04-15T01:15:37.416Z,1005.69
2018-04-15T01:16:37.371Z,1005.75
2018-04-15T01:17:37.425Z,1005.71
2018-04-15T01:18:37.483Z,1005.68
2018-04-15T01:19:37.482Z,1005.64
2018-04-15T01:20:37.409Z,1005.61
2018-04-15T01:21:37.411Z,1005.62
2018-04-15T01:22:37.413Z,1005.62
2018-04-15T01:23:37.486Z,1005.58
2018-04-15T01:24:37.475Z,1005.56
2018-04-15T01:25:37.409Z,1005.57
2018-04-15T01:26:37.365Z,1005.55
2018-04-15T01:27:37.405Z,1005.54
2018-04-15T01:28:37.478Z,1005.55
2018-04-15T01:29:37.408Z,1005.57
2018-04-15T01:30:37.477Z,1005.49
2018-04-15T01:31:37.407Z,1005.48
2018-04-15T01:32:37.409Z,1005.48
2018-04-15T01:33:37.480Z,1005.51
2018-04-15T01:34:37.378Z,1005.47
2018-04-15T01:35:37.518Z,1005.47
2018-04-15T01:36:37.489Z,1005.42
2018-04-15T01:37:37.422Z,1005.42
2018-04-15T01:38:37.495Z,1005.39
2018-04-15T01:39:37.449Z,1005.39
2018-04-15T01:40:37.499Z,1005.41
2018-04-15T01:41:37.437Z,1005.40
2018-04-15T01:42:37.384Z,1005.40
2018-04-15T01:43:37.423Z,1005.42
2018-04-15T01:44:37.429Z,1005.41
2018-04-15T01:45:37.427Z,1005.38
2018-04-15T01:46:37.427Z,1005.42
2018-04-15T01:47:37.427Z,1005.34
2018-04-15T01:48:37.444Z,1005.40
2018-04-15T01:49:37.506Z,1005.36
2018-04-15T01:50:37.501Z,1005.37
2018-04-15T01:51:37.508Z,1005.38
2018-04-15T01:52:37.432Z,1005.40
2018-04-15T01:53:37.628Z,1005.37
2018-04-15T01:54:37.503Z,1005.38
2018-04-15T01:55:37.445Z,1005.34
2018-04-15T01:56:37.507Z,1005.35
2018-04-15T01:57:37.434Z,1005.36
2018-04-15T01:58:37.510Z,1005.31
2018-04-15T01:59:37.478Z,1005.31
2018-04-15T02:00:37.606Z,1005.30
2018-04-15T02:01:37.439Z,1005.27
2018-04-15T02:02:37.453Z,1005.29
2018-04-15T02:03:37.511Z,1005.25
2018-04-15T02:04:37.506Z,1005.28
2018-04-15T02:05:37.506Z,1005.25
2018-04-15T02:06:37.503Z,1005.24
2018-04-15T02:07:37.447Z,1005.27
2018-04-15T02:08:37.486Z,1005.21
2018-04-15T02:09:37.445Z,1005.22
2018-04-15T02:10:37.511Z,1005.26
2018-04-15T02:11:37.448Z,1005.18
2018-04-15T02:12:37.509Z,1005.16
2018-04-15T02:13:37.449Z,1005.18
2018-04-15T02:14:37.401Z,1005.15
2018-04-15T02:15:37.533Z,1005.16
2018-04-15T02:16:37.444Z,1005.19
2018-04-15T02:17:37.445Z,1005.20
2018-04-15T02:18:37.521Z,1005.18
2018-04-15T02:19:37.544Z,1005.17
2018-04-15T02:20:37.449Z,1005.15
2018-04-15T02:21:37.573Z,1005.15
2018-04-15T02:22:37.522Z,1005.11
2018-04-15T02:23:37.451Z,1005.12
2018-04-15T02:24:37.449Z,1005.11
2018-04-15T02:25:37.453Z,1005.07
2018-04-15T02:26:37.530Z,1005.08
2018-04-15T02:27:37.454Z,1005.07
2018-04-15T02:28:37.529Z,1005.05
2018-04-15T02:29:37.461Z,1005.05
2018-04-15T02:30:37.458Z,1005.05
2018-04-15T02:31:37.547Z,1005.04
2018-04-15T02:32:37.453Z,1005.01
2018-04-15T02:33:37.458Z,1005.02
2018-04-15T02:34:37.565Z,1004.99
2018-04-15T02:35:37.530Z,1004.97
2018-04-15T02:36:37.584Z,1004.96
2018-04-15T02:37:37.456Z,1004.95
2018-04-15T02:38:37.568Z,1004.88
2018-04-15T02:39:37.527Z,1004.91
2018-04-15T02:40:37.527Z,1004.87
2018-04-15T02:41:37.562Z,1004.85
2018-04-15T02:42:37.540Z,1004.84
2018-04-15T02:43:37.562Z,1004.87
2018-04-15T02:44:37.527Z,1004.86
2018-04-15T02:45:37.461Z,1004.86
2018-04-15T02:46:37.461Z,1004.87
2018-04-15T02:47:37.546Z,1004.87
2018-04-15T02:48:37.463Z,1004.83
2018-04-15T02:49:37.542Z,1004.84
2018-04-15T02:50:37.461Z,1004.81
2018-04-15T02:51:37.531Z,1004.80
2018-04-15T02:52:37.459Z,1004.81
2018-04-15T02:53:37.531Z,1004.80
2018-04-15T02:54:37.540Z,1004.76
2018-04-15T02:55:37.477Z,1004.74
2018-04-15T02:56:37.442Z,1004.75
2018-04-15T02:57:37.564Z,1004.76
2018-04-15T02:58:37.571Z,1004.77
2018-04-15T02:59:37.540Z,1004.80
2018-04-15T03:00:37.555Z,1004.78
2018-04-15T03:01:37.545Z,1004.80
2018-04-15T03:02:37.611Z,1004.78
2018-04-15T03:03:37.587Z,1004.76
2018-04-15T03:04:37.554Z,1004.77
2018-04-15T03:05:37.480Z,1004.70
2018-04-15T03:06:37.556Z,1004.72
2018-04-15T03:07:37.554Z,1004.74
2018-04-15T03:08:37.497Z,1004.67
2018-04-15T03:09:37.554Z,1004.71
2018-04-15T03:10:37.557Z,1004.68
2018-04-15T03:11:37.479Z,1004.70
2018-04-15T03:12:37.556Z,1004.63
2018-04-15T03:13:37.499Z,1004.66
2018-04-15T03:14:37.547Z,1004.64
2018-04-15T03:15:37.581Z,1004.65
2018-04-15T03:16:37.529Z,1004.65
2018-04-15T03:17:37.612Z,1004.63
2018-04-15T03:18:37.555Z,1004.60
2018-04-15T03:19:37.552Z,1004.62
2018-04-15T03:20:37.536Z,1004.60
2018-04-15T03:21:37.553Z,1004.58
2018-04-15T03:22:37.527Z,1004.62
2018-04-15T03:23:37.482Z,1004.61
2018-04-15T03:24:37.581Z,1004.60
2018-04-15T03:25:37.592Z,1004.63
2018-04-15T03:26:37.556Z,1004.58
2018-04-15T03:27:37.524Z,1004.63
2018-04-15T03:28:37.496Z,1004.60
2018-04-15T03:29:37.465Z,1004.60
2018-04-15T03:30:37.484Z,1004.60
2018-04-15T03:31:37.530Z,1004.59
2018-04-15T03:32:37.590Z,1004.60
2018-04-15T03:33:37.528Z,1004.58
2018-04-15T03:34:37.623Z,1004.60
2018-04-15T03:35:37.534Z,1004.59
2018-04-15T03:36:37.545Z,1004.60
2018-04-15T03:37:37.626Z,1004.60
2018-04-15T03:38:37.534Z,1004.59
2018-04-15T03:39:37.602Z,1004.60
2018-04-15T03:40:37.628Z,1004.59
2018-04-15T03:41:37.595Z,1004.57
2018-04-15T03:42:37.473Z,1004.58
2018-04-15T03:43:37.698Z,1004.59
2018-04-15T03:44:37.575Z,1004.54
2018-04-15T03:45:37.575Z,1004.57
2018-04-15T03:46:37.500Z,1004.58
2018-04-15T03:47:37.511Z,1004.58
2018-04-15T03:48:37.579Z,1004.57
2018-04-15T03:49:37.502Z,1004.56
2018-04-15T03:50:37.579Z,1004.58
2018-04-15T03:51:37.550Z,1004.58
2018-04-15T03:52:37.511Z,1004.58
2018-04-15T03:53:37.507Z,1004.60
2018-04-15T03:54:37.507Z,1004.60
2018-04-15T03:55:37.548Z,1004.59
2018-04-15T03:56:37.507Z,1004.63
2018-04-15T03:57:37.590Z,1004.60
2018-04-15T03:58:37.632Z,1004.63
2018-04-15T03:59:37.647Z,1004.65
2018-04-15T04:00:37.585Z,1004.66
2018-04-15T04:01:37.527Z,1004.65
2018-04-15T04:02:37.584Z,1004.64
2018-04-15T04:03:37.524Z,1004.66
2018-04-15T04:04:37.610Z,1004.63
2018-04-15T04:05:37.607Z,1004.65
2018-04-15T04:06:37.582Z,1004.68
2018-04-15T04:07:37.641Z,1004.68
2018-04-15T04:08:37.645Z,1004.66
2018-04-15T04:09:37.644Z,1004.68
2018-04-15T04:10:37.643Z,1004.73
2018-04-15T04:11:37.585Z,1004.76
2018-04-15T04:12:37.649Z,1004.76
2018-04-15T04:13:37.608Z,1004.82
2018-04-15T04:14:37.714Z,1004.91
2018-04-15T04:15:37.554Z,1004.98
2018-04-15T04:16:37.605Z,1005.05
2018-04-15T04:17:37.614Z,1005.07
2018-04-15T04:18:37.525Z,1005.12
2018-04-15T04:19:37.523Z,1005.10
2018-04-15T04:20:37.591Z,1005.08
2018-04-15T04:21:37.618Z,1005.05
2018-04-15T04:22:37.592Z,1005.07
2018-04-15T04:23:37.594Z,1005.12
2018-04-15T04:24:37.606Z,1005.12
2018-04-15T04:25:37.526Z,1005.18
2018-04-15T04:26:37.603Z,1005.17
2018-04-15T04:27:37.498Z,1005.16
2018-04-15T04:28:37.531Z,1005.14
2018-04-15T04:29:37.601Z,1005.16
2018-04-15T04:30:37.529Z,1005.20
2018-04-15T04:31:37.603Z,1005.19
2018-04-15T04:32:37.533Z,1005.19
2018-04-15T04:33:37.529Z,1005.17
2018-04-15T04:34:37.504Z,1005.17
2018-04-15T04:35:37.666Z,1005.19
2018-04-15T04:36:37.518Z,1005.25
2018-04-15T04:37:37.640Z,1005.25
2018-04-15T04:38:37.663Z,1005.22
2018-04-15T04:39:37.611Z,1005.20
2018-04-15T04:40:37.609Z,1005.22
2018-04-15T04:41:37.582Z,1005.19
2018-04-15T04:42:37.628Z,1005.14
2018-04-15T04:43:37.568Z,1005.11
2018-04-15T04:44:37.557Z,1005.10
2018-04-15T04:45:37.529Z,1005.09
2018-04-15T04:46:37.500Z,1005.05
2018-04-15T04:47:37.576Z,1005.01
2018-04-15T04:48:37.470Z,1005.01
2018-04-15T04:49:37.530Z,1004.99
2018-04-15T04:50:37.570Z,1005.06
2018-04-15T04:51:37.475Z,1005.07
2018-04-15T04:52:37.473Z,1005.08
2018-04-15T04:53:37.566Z,1005.05
2018-04-15T04:54:37.560Z,1005.13
2018-04-15T04:55:37.621Z,1005.15
2018-04-15T04:56:37.621Z,1005.11
2018-04-15T04:57:37.512Z,1005.12
2018-04-15T04:58:37.549Z,1005.16
2018-04-15T04:59:37.634Z,1005.13
2018-04-15T05:00:37.510Z,1005.12
2018-04-15T05:01:37.578Z,1005.09
2018-04-15T05:02:37.626Z,1005.12
2018-04-15T05:03:37.551Z,1005.08
2018-04-15T05:04:37.596Z,1005.07
2018-04-15T05:05:37.650Z,1005.06
2018-04-15T05:06:37.547Z,1005.08
2018-04-15T05:07:37.608Z,1005.08
2018-04-15T05:08:37.541Z,1005.08
2018-04-15T05:09:37.598Z,1005.06
2018-04-15T05:10:37.528Z,1005.09
2018-04-15T05:11:37.546Z,1005.08
2018-04-15T05:12:37.681Z,1005.10
2018-04-15T05:13:37.627Z,1005.04
2018-04-15T05:14:37.557Z,1005.06
2018-04-15T05:15:37.527Z,1005.08
2018-04-15T05:16:37.618Z,1005.08
2018-04-15T05:17:37.532Z,1005.06
2018-04-15T05:18:37.520Z,1005.05
2018-04-15T05:19:37.608Z,1005.05
2018-04-15T05:20:37.568Z,1005.03
2018-04-15T05:21:37.564Z,1005.03
2018-04-15T05:22:37.529Z,1005.03
2018-04-15T05:23:37.525Z,1005.02
2018-04-15T05:24:37.615Z,1005.03
2018-04-15T05:25:37.609Z,1005.05
2018-04-15T05:26:37.598Z,1005.04
2018-04-15T05:27:37.594Z,1005.08
2018-04-15T05:28:37.632Z,1005.08
2018-04-15T05:29:37.635Z,1005.04
2018-04-15T05:30:37.664Z,1005.03
2018-04-15T05:31:37.633Z,1004.96
2018-04-15T05:32:37.668Z,1005.02
2018-04-15T05:33:37.616Z,1004.95
2018-04-15T05:34:37.653Z,1004.91
2018-04-15T05:35:37.667Z,1004.91
2018-04-15T05:36:37.668Z,1004.84
2018-04-15T05:37:37.677Z,1004.85
2018-04-15T05:38:37.670Z,1004.85
2018-04-15T05:39:37.614Z,1004.85
2018-04-15T05:40:37.582Z,1004.80
2018-04-15T05:41:37.614Z,1004.85
2018-04-15T05:42:37.546Z,1004.85
2018-04-15T05:43:37.585Z,1004.83
2018-04-15T05:44:37.620Z,1004.81
2018-04-15T05:45:37.625Z,1004.79
2018-04-15T05:46:37.672Z,1004.81
2018-04-15T05:47:37.665Z,1004.80
2018-04-15T05:48:37.680Z,1004.79
2018-04-15T05:49:37.643Z,1004.80
2018-04-15T05:50:37.570Z,1004.77
2018-04-15T05:51:37.674Z,1004.76
2018-04-15T05:52:37.683Z,1004.72
2018-04-15T05:53:37.564Z,1004.70
2018-04-15T05:54:37.605Z,1004.67
2018-04-15T05:55:37.641Z,1004.66
2018-04-15T05:56:37.691Z,1004.65
2018-04-15T05:57:37.555Z,1004.66
2018-04-15T05:58:37.620Z,1004.66
2018-04-15T05:59:37.631Z,1004.62
2018-04-15T06:00:37.674Z,1004.65
2018-04-15T06:01:37.693Z,1004.67
2018-04-15T06:02:37.670Z,1004.61
2018-04-15T06:03:37.628Z,1004.57
2018-04-15T06:04:37.682Z,1004.64
2018-04-15T06:05:37.660Z,1004.62
2018-04-15T06:06:37.659Z,1004.63
2018-04-15T06:07:37.589Z,1004.66
2018-04-15T06:08:37.668Z,1004.67
2018-04-15T06:09:37.654Z,1004.70
2018-04-15T06:10:37.590Z,1004.71
2018-04-15T06:11:37.591Z,1004.69
2018-04-15T06:12:37.687Z,1004.68
2018-04-15T06:13:37.592Z,1004.69
2018-04-15T06:14:37.665Z,1004.68
2018-04-15T06:15:37.597Z,1004.69
2018-04-15T06:16:37.691Z,1004.70
2018-04-15T06:17:37.726Z,1004.65
2018-04-15T06:18:37.704Z,1004.64
2018-04-15T06:19:37.698Z,1004.63
2018-04-15T06:20:37.583Z,1004.66
2018-04-15T06:21:37.709Z,1004.61
2018-04-15T06:22:37.639Z,1004.62
2018-04-15T06:23:37.648Z,1004.60
2018-04-15T06:24:37.637Z,1004.64
2018-04-15T06:25:37.587Z,1004.60
2018-04-15T06:26:37.632Z,1004.62
2018-04-15T06:27:37.647Z,1004.64
2018-04-15T06:28:37.648Z,1004.59
2018-04-15T06:29:37.611Z,1004.61
2018-04-15T06:30:37.594Z,1004.61
2018-04-15T06:31:37.597Z,1004.66
2018-04-15T06:32:37.718Z,1004.65
2018-04-15T06:33:37.771Z,1004.66
2018-04-15T06:34:37.623Z,1004.66
2018-04-15T06:35:37.713Z,1004.63
2018-04-15T06:36:37.719Z,1004.67
2018-04-15T06:37:37.640Z,1004.67
2018-04-15T06:38:37.718Z,1004.65
2018-04-15T06:39:37.706Z,1004.63
2018-04-15T06:40:37.713Z,1004.63
2018-04-15T06:41:37.677Z,1004.64
2018-04-15T06:42:37.700Z,1004.66
2018-04-15T06:43:37.689Z,1004.63
2018-04-15T06:44:37.695Z,1004.67
2018-04-15T06:45:37.711Z,1004.64
2018-04-15T06:46:37.684Z,1004.65
2018-04-15T06:47:37.656Z,1004.63
2018-04-15T06:48:37.602Z,1004.65
2018-04-15T06:49:37.663Z,1004.62
2018-04-15T06:50:37.684Z,1004.60
2018-04-15T06:51:37.666Z,1004.63
2018-04-15T06:52:37.722Z,1004.60
2018-04-15T06:53:37.681Z,1004.62
2018-04-15T06:54:37.625Z,1004.62
2018-04-15T06:55:37.658Z,1004.59
2018-04-15T06:56:37.698Z,1004.61
2018-04-15T06:57:37.625Z,1004.63
2018-04-15T06:58:37.719Z,1004.64
2018-04-15T06:59:37.699Z,1004.62
2018-04-15T07:00:37.627Z,1004.68
2018-04-15T07:01:37.699Z,1004.69
2018-04-15T07:02:37.663Z,1004.70
2018-04-15T07:03:37.689Z,1004.70
2018-04-15T07:04:37.655Z,1004.70
2018-04-15T07:05:37.696Z,1004.72
2018-04-15T07:06:37.702Z,1004.68
2018-04-15T07:07:37.625Z,1004.70
2018-04-15T07:08:37.625Z,1004.72
2018-04-15T07:09:37.703Z,1004.72
2018-04-15T07:10:37.698Z,1004.72
2018-04-15T07:11:37.704Z,1004.70
2018-04-15T07:12:37.628Z,1004.74
2018-04-15T07:13:37.701Z,1004.69
2018-04-15T07:14:37.630Z,1004.70
2018-04-15T07:15:37.631Z,1004.70
2018-04-15T07:16:37.635Z,1004.71
2018-04-15T07:17:37.703Z,1004.73
2018-04-15T07:18:37.676Z,1004.74
2018-04-15T07:19:37.634Z,1004.76
2018-04-15T07:20:37.632Z,1004.77
2018-04-15T07:21:37.639Z,1004.74
2018-04-15T07:22:37.712Z,1004.76
2018-04-15T07:23:37.635Z,1004.74
2018-04-15T07:24:37.711Z,1004.78
2018-04-15T07:25:37.638Z,1004.71
2018-04-15T07:26:37.661Z,1004.74
2018-04-15T07:27:37.597Z,1004.76
2018-04-15T07:28:37.690Z,1004.76
2018-04-15T07:29:37.602Z,1004.78
2018-04-15T07:30:37.689Z,1004.78
2018-04-15T07:31:37.605Z,1004.80
2018-04-15T07:32:37.670Z,1004.80
2018-04-15T07:33:37.704Z,1004.78
2018-04-15T07:34:37.603Z,1004.84
2018-04-15T07:35:37.718Z,1004.78
2018-04-15T07:36:37.715Z,1004.75
2018-04-15T07:37:37.714Z,1004.76
2018-04-15T07:38:37.717Z,1004.76
2018-04-15T07:39:37.710Z,1004.74
2018-04-15T07:40:37.645Z,1004.72
2018-04-15T07:41:37.685Z,1004.75
2018-04-15T07:42:37.647Z,1004.73
2018-04-15T07:43:37.651Z,1004.71
2018-04-15T07:44:37.719Z,1004.68
2018-04-15T07:45:37.688Z,1004.64
2018-04-15T07:46:37.753Z,1004.62
2018-04-15T07:47:37.760Z,1004.66
2018-04-15T07:48:37.680Z,1004.62
2018-04-15T07:49:37.719Z,1004.63
2018-04-15T07:50:37.778Z,1004.61
2018-04-15T07:51:37.684Z,1004.59
2018-04-15T07:52:37.626Z,1004.59
2018-04-15T07:53:37.764Z,1004.52
2018-04-15T07:54:37.724Z,1004.56
2018-04-15T07:55:37.729Z,1004.56
2018-04-15T07:56:37.724Z,1004.56
2018-04-15T07:57:37.632Z,1004.54
2018-04-15T07:58:37.786Z,1004.52
2018-04-15T07:59:37.749Z,1004.52
2018-04-15T08:00:37.787Z,1004.49
2018-04-15T08:01:37.695Z,1004.51
2018-04-15T08:02:37.770Z,1004.52
2018-04-15T08:03:37.703Z,1004.51
2018-04-15T08:04:37.699Z,1004.55
2018-04-15T08:05:37.668Z,1004.54
2018-04-15T08:06:37.661Z,1004.49
2018-04-15T08:07:37.763Z,1004.53
2018-04-15T08:08:37.679Z,1004.53
2018-04-15T08:09:37.739Z,1004.52
2018-04-15T08:10:37.666Z,1004.52
2018-04-15T08:11:37.717Z,1004.49
2018-04-15T08:12:37.666Z,1004.53
2018-04-15T08:13:37.678Z,1004.48
2018-04-15T08:14:37.668Z,1004.45
2018-04-15T08:15:37.740Z,1004.43
2018-04-15T08:16:37.668Z,1004.43
2018-04-15T08:17:37.627Z,1004.44
2018-04-15T08:18:37.726Z,1004.43
2018-04-15T08:19:37.742Z,1004.43
2018-04-15T08:20:37.744Z,1004.38
2018-04-15T08:21:37.673Z,1004.39
2018-04-15T08:22:37.746Z,1004.39
2018-04-15T08:23:37.675Z,1004.37
2018-04-15T08:24:37.677Z,1004.35
2018-04-15T08:25:37.669Z,1004.32
2018-04-15T08:26:37.702Z,1004.34
2018-04-15T08:27:37.708Z,1004.35
2018-04-15T08:28:37.699Z,1004.31
2018-04-15T08:29:37.746Z,1004.30
2018-04-15T08:30:37.669Z,1004.25
2018-04-15T08:31:37.887Z,1004.28
2018-04-15T08:32:37.650Z,1004.24
2018-04-15T08:33:37.652Z,1004.26
2018-04-15T08:34:37.751Z,1004.24
2018-04-15T08:35:37.807Z,1004.23
2018-04-15T08:36:37.774Z,1004.23
2018-04-15T08:37:37.727Z,1004.20
2018-04-15T08:38:37.732Z,1004.22
2018-04-15T08:39:37.759Z,1004.25
2018-04-15T08:40:37.669Z,1004.24
2018-04-15T08:41:37.718Z,1004.24
2018-04-15T08:42:37.753Z,1004.24
2018-04-15T08:43:37.719Z,1004.22
2018-04-15T08:44:37.725Z,1004.22
2018-04-15T08:45:37.726Z,1004.19
2018-04-15T08:46:37.674Z,1004.16
2018-04-15T08:47:37.701Z,1004.12
2018-04-15T08:48:37.762Z,1004.11
2018-04-15T08:49:37.756Z,1004.06
2018-04-15T08:50:37.758Z,1004.06
2018-04-15T08:51:37.799Z,1004.04
2018-04-15T08:52:37.729Z,1004.03
2018-04-15T08:53:37.841Z,1004.03
2018-04-15T08:54:37.767Z,1004.01
2018-04-15T08:55:37.764Z,1004.02
2018-04-15T08:56:37.764Z,1004.02
2018-04-15T08:57:37.703Z,1003.97
2018-04-15T08:58:37.771Z,1003.97
2018-04-15T08:59:37.693Z,1003.95
2018-04-15T09:00:37.816Z,1003.98
2018-04-15T09:01:37.700Z,1003.93
2018-04-15T09:02:37.695Z,1003.93
2018-04-15T09:03:37.700Z,1003.91
2018-04-15T09:04:37.700Z,1003.87
2018-04-15T09:05:37.731Z,1003.85
2018-04-15T09:06:37.793Z,1003.83
2018-04-15T09:07:37.742Z,1003.79
2018-04-15T09:08:37.744Z,1003.82
2018-04-15T09:09:37.745Z,1003.77
2018-04-15T09:10:37.709Z,1003.76
2018-04-15T09:11:37.751Z,1003.77
2018-04-15T09:12:37.796Z,1003.76
2018-04-15T09:13:37.728Z,1003.72
2018-04-15T09:14:37.810Z,1003.71
2018-04-15T09:15:37.696Z,1003.67
2018-04-15T09:16:37.807Z,1003.68
2018-04-15T09:17:37.782Z,1003.66
2018-04-15T09:18:37.715Z,1003.64
2018-04-15T09:19:37.777Z,1003.64
2018-04-15T09:20:37.800Z,1003.62
2018-04-15T09:21:37.777Z,1003.58
2018-04-15T09:22:37.743Z,1003.59
2018-04-15T09:23:37.820Z,1003.57
2018-04-15T09:24:37.760Z,1003.55
2018-04-15T09:25:37.786Z,1003.51
2018-04-15T09:26:37.787Z,1003.51
2018-04-15T09:27:37.786Z,1003.51
2018-04-15T09:28:37.786Z,1003.47
2018-04-15T09:29:37.757Z,1003.48
2018-04-15T09:30:37.712Z,1003.47
2018-04-15T09:31:37.787Z,1003.41
2018-04-15T09:32:37.720Z,1003.40
2018-04-15T09:33:37.720Z,1003.34
2018-04-15T09:34:37.716Z,1003.33
2018-04-15T09:35:37.884Z,1003.28
2018-04-15T09:36:37.766Z,1003.28
2018-04-15T09:37:37.809Z,1003.24
2018-04-15T09:38:37.757Z,1003.25
2018-04-15T09:39:37.707Z,1003.20
2018-04-15T09:40:37.765Z,1003.21
2018-04-15T09:41:37.761Z,1003.18
2018-04-15T09:42:37.767Z,1003.16
2018-04-15T09:43:37.758Z,1003.17
2018-04-15T09:44:37.797Z,1003.14
2018-04-15T09:45:37.786Z,1003.14
2018-04-15T09:46:37.721Z,1003.15
2018-04-15T09:47:37.700Z,1003.12
2018-04-15T09:48:37.713Z,1003.11
2018-04-15T09:49:37.757Z,1003.13
2018-04-15T09:50:37.792Z,1003.09
2018-04-15T09:51:37.700Z,1003.08
2018-04-15T09:52:37.728Z,1003.09
2018-04-15T09:53:37.794Z,1003.12
2018-04-15T09:54:37.788Z,1003.14
2018-04-15T09:55:37.798Z,1003.11
2018-04-15T09:56:37.764Z,1003.07
2018-04-15T09:57:37.812Z,1003.04
2018-04-15T09:58:37.839Z,1003.02
2018-04-15T09:59:37.786Z,1003.00
2018-04-15T10:00:37.699Z,1002.95
2018-04-15T10:01:37.832Z,1002.98
2018-04-15T10:02:37.770Z,1002.96
2018-04-15T10:03:37.747Z,1002.92
2018-04-15T10:04:37.822Z,1002.95
2018-04-15T10:05:37.765Z,1002.91
2018-04-15T10:06:37.796Z,1002.95
2018-04-15T10:07:37.721Z,1002.90
2018-04-15T10:08:37.737Z,1002.88
2018-04-15T10:09:37.696Z,1002.89
2018-04-15T10:10:37.716Z,1002.87
2018-04-15T10:11:37.729Z,1002.91
2018-04-15T10:13:37.754Z,1002.90
2018-04-15T10:14:37.803Z,1002.89
2018-04-15T10:15:37.770Z,1002.91
2018-04-15T10:16:37.730Z,1002.93
2018-04-15T10:17:37.806Z,1002.87
2018-04-15T10:18:37.804Z,1002.88
2018-04-15T10:19:37.705Z,1002.84
2018-04-15T10:20:37.730Z,1002.85
2018-04-15T10:21:37.809Z,1002.85
2018-04-15T10:22:37.807Z,1002.82
2018-04-15T10:23:37.703Z,1002.84
2018-04-15T10:24:37.735Z,1002.82
2018-04-15T10:25:37.690Z,1002.84
2018-04-15T10:26:37.773Z,1002.84
2018-04-15T10:27:37.809Z,1002.81
2018-04-15T10:28:37.832Z,1002.79
2018-04-15T10:29:37.813Z,1002.82
2018-04-15T10:30:37.712Z,1002.82
2018-04-15T10:31:37.813Z,1002.80
2018-04-15T10:32:37.808Z,1002.80
2018-04-15T10:33:37.692Z,1002.80
2018-04-15T10:34:37.757Z,1002.74
2018-04-15T10:35:37.803Z,1002.72
2018-04-15T10:36:37.850Z,1002.71
2018-04-15T10:37:37.751Z,1002.71
2018-04-15T10:38:37.743Z,1002.68
2018-04-15T10:39:37.835Z,1002.66
2018-04-15T10:40:37.765Z,1002.66
2018-04-15T10:41:37.851Z,1002.70
2018-04-15T10:42:37.744Z,1002.67
2018-04-15T10:43:37.827Z,1002.68
2018-04-15T10:44:37.797Z,1002.65
2018-04-15T10:45:37.719Z,1002.66
2018-04-15T10:46:37.763Z,1002.69
2018-04-15T10:47:37.765Z,1002.63
2018-04-15T10:48:37.764Z,1002.66
2018-04-15T10:49:37.784Z,1002.68
2018-04-15T10:50:37.837Z,1002.66
2018-04-15T10:51:37.765Z,1002.65
2018-04-15T10:52:37.837Z,1002.64
2018-04-15T10:53:37.770Z,1002.61
2018-04-15T10:54:37.872Z,1002.64
2018-04-15T10:55:37.810Z,1002.64
2018-04-15T10:56:37.796Z,1002.62
2018-04-15T10:57:37.806Z,1002.61
2018-04-15T10:58:37.873Z,1002.65
2018-04-15T10:59:37.873Z,1002.61
2018-04-15T11:00:37.765Z,1002.59
2018-04-15T11:01:37.741Z,1002.56
2018-04-15T11:02:37.820Z,1002.58
2018-04-15T11:03:37.763Z,1002.55
2018-04-15T11:04:37.745Z,1002.57
2018-04-15T11:05:37.813Z,1002.56
2018-04-15T11:06:37.770Z,1002.52
2018-04-15T11:07:37.864Z,1002.47
2018-04-15T11:08:37.896Z,1002.45
2018-04-15T11:09:37.773Z,1002.40
2018-04-15T11:10:37.872Z,1002.38
2018-04-15T11:11:37.822Z,1002.39
2018-04-15T11:12:37.848Z,1002.39
2018-04-15T11:13:37.854Z,1002.36
2018-04-15T11:14:37.874Z,1002.36
2018-04-15T11:15:37.853Z,1002.36
2018-04-15T11:16:37.781Z,1002.30
2018-04-15T11:17:37.861Z,1002.29
2018-04-15T11:18:37.791Z,1002.30
2018-04-15T11:19:37.782Z,1002.26
2018-04-15T11:20:37.787Z,1002.22
2018-04-15T11:21:37.857Z,1002.21
2018-04-15T11:22:37.787Z,1002.15
2018-04-15T11:23:37.752Z,1002.21
2018-04-15T11:24:37.858Z,1002.18
2018-04-15T11:25:37.802Z,1002.19
2018-04-15T11:26:37.885Z,1002.12
2018-04-15T11:27:37.883Z,1002.13
2018-04-15T11:28:37.890Z,1002.10
2018-04-15T11:29:37.851Z,1002.13
2018-04-15T11:30:37.859Z,1002.10
2018-04-15T11:31:37.815Z,1002.08
2018-04-15T11:32:37.857Z,1002.05
2018-04-15T11:33:37.836Z,1002.05
2018-04-15T11:34:37.779Z,1002.02
2018-04-15T11:35:37.795Z,1002.03
2018-04-15T11:36:37.913Z,1002.00
2018-04-15T11:37:37.870Z,1002.05
2018-04-15T11:38:37.797Z,1002.02
2018-04-15T11:39:37.867Z,1002.00
2018-04-15T11:40:37.796Z,1001.97
2018-04-15T11:41:37.860Z,1001.96
2018-04-15T11:42:37.798Z,1001.94
2018-04-15T11:43:37.880Z,1001.92
2018-04-15T11:44:37.868Z,1001.90
2018-04-15T11:45:37.802Z,1001.91
2018-04-15T11:46:37.853Z,1001.90
2018-04-15T11:47:37.852Z,1001.89
2018-04-15T11:48:37.847Z,1001.84
2018-04-15T11:49:37.743Z,1001.82
2018-04-15T11:50:37.854Z,1001.84
2018-04-15T11:51:37.844Z,1001.82
2018-04-15T11:52:37.761Z,1001.79
2018-04-15T11:53:37.760Z,1001.77
2018-04-15T11:54:37.734Z,1001.79
2018-04-15T11:55:37.774Z,1001.79
2018-04-15T11:56:37.833Z,1001.72
2018-04-15T11:57:37.827Z,1001.70
2018-04-15T11:58:37.909Z,1001.74
2018-04-15T11:59:37.797Z,1001.70
2018-04-15T12:00:37.899Z,1001.71
2018-04-15T12:01:37.834Z,1001.71
2018-04-15T12:02:37.918Z,1001.67
2018-04-15T12:03:37.836Z,1001.64
2018-04-15T12:04:37.912Z,1001.65
2018-04-15T12:05:37.836Z,1001.64
2018-04-15T12:06:37.845Z,1001.68